sensor_id;sensor_type;location;lat;lon;timestamp;pressure;altitude;pressure_sealevel;temperature;humidity
73748;BME280;62056;52.130;5.428;2023-02-11T00:01:10;103628.00;;;6.29;77.15
73748;BME280;62056;52.130;5.428;2023-02-11T00:03:37;103629.03;;;6.28;77.28
73748;BME280;62056;52.130;5.428;2023-02-11T00:06:06;103630.84;;;6.27;77.31
73748;BME280;62056;52.130;5.428;2023-02-11T00:08:37;103614.16;;;6.27;77.21
73748;BME280;62056;52.130;5.428;2023-02-11T00:11:04;103611.34;;;6.28;79.23
73748;BME280;62056;52.130;5.428;2023-02-11T00:13:31;103609.72;;;6.27;77.56
73748;BME280;62056;52.130;5.428;2023-02-11T00:15:57;103625.75;;;6.26;77.86
73748;BME280;62056;52.130;5.428;2023-02-11T00:18:24;103615.19;;;6.26;77.34
73748;BME280;62056;52.130;5.428;2023-02-11T00:20:51;103619.66;;;6.25;78.40
73748;BME280;62056;52.130;5.428;2023-02-11T00:23:17;103612.72;;;6.24;78.04
73748;BME280;62056;52.130;5.428;2023-02-11T00:25:44;103617.81;;;6.26;78.25
73748;BME280;62056;52.130;5.428;2023-02-11T00:28:11;103622.09;;;6.27;78.32
73748;BME280;62056;52.130;5.428;2023-02-11T00:30:38;103625.75;;;6.26;78.44
73748;BME280;62056;52.130;5.428;2023-02-11T00:33:05;103622.31;;;6.25;78.07
73748;BME280;62056;52.130;5.428;2023-02-11T00:35:32;103612.94;;;6.23;78.29
73748;BME280;62056;52.130;5.428;2023-02-11T00:37:59;103624.50;;;6.22;78.49
73748;BME280;62056;52.130;5.428;2023-02-11T00:40:25;103619.22;;;6.22;79.14
73748;BME280;62056;52.130;5.428;2023-02-11T00:42:52;103624.50;;;6.22;79.84
73748;BME280;62056;52.130;5.428;2023-02-11T00:45:19;103630.59;;;6.22;78.85
73748;BME280;62056;52.130;5.428;2023-02-11T00:47:46;103628.78;;;6.23;78.72
73748;BME280;62056;52.130;5.428;2023-02-11T00:50:13;103634.25;;;6.21;78.68
73748;BME280;62056;52.130;5.428;2023-02-11T00:52:40;103622.88;;;6.21;78.63
73748;BME280;62056;52.130;5.428;2023-02-11T00:55:07;103629.78;;;6.22;78.93
73748;BME280;62056;52.130;5.428;2023-02-11T00:57:34;103628.97;;;6.21;78.84
73748;BME280;62056;52.130;5.428;2023-02-11T01:00:01;103618.41;;;6.21;79.53
73748;BME280;62056;52.130;5.428;2023-02-11T01:02:27;103604.38;;;6.21;79.31
73748;BME280;62056;52.130;5.428;2023-02-11T01:04:54;103608.81;;;6.20;79.07
73748;BME280;62056;52.130;5.428;2023-02-11T01:07:20;103604.56;;;6.19;79.17
73748;BME280;62056;52.130;5.428;2023-02-11T01:09:47;103594.97;;;6.18;78.69
73748;BME280;62056;52.130;5.428;2023-02-11T01:12:13;103586.25;;;6.18;79.05
73748;BME280;62056;52.130;5.428;2023-02-11T01:14:40;103592.53;;;6.17;78.77
73748;BME280;62056;52.130;5.428;2023-02-11T01:17:07;103590.91;;;6.16;78.94
73748;BME280;62056;52.130;5.428;2023-02-11T01:19:36;103597.19;;;6.15;78.33
73748;BME280;62056;52.130;5.428;2023-02-11T01:22:03;103583.38;;;6.13;78.48
73748;BME280;62056;52.130;5.428;2023-02-11T01:24:30;103576.44;;;6.12;78.73
73748;BME280;62056;52.130;5.428;2023-02-11T01:26:57;103558.31;;;6.08;78.29
73748;BME280;62056;52.130;5.428;2023-02-11T01:29:24;103568.06;;;6.08;80.67
73748;BME280;62056;52.130;5.428;2023-02-11T01:31:50;103582.47;;;6.05;79.19
73748;BME280;62056;52.130;5.428;2023-02-11T01:34:18;103583.66;;;6.03;78.96
73748;BME280;62056;52.130;5.428;2023-02-11T01:36:44;103600.50;;;6.02;80.59
73748;BME280;62056;52.130;5.428;2023-02-11T01:39:11;103604.16;;;6.01;79.02
73748;BME280;62056;52.130;5.428;2023-02-11T01:41:37;103615.72;;;6.00;78.59
73748;BME280;62056;52.130;5.428;2023-02-11T01:46:48;103617.72;;;5.98;78.56
73748;BME280;62056;52.130;5.428;2023-02-11T01:49:20;103606.19;;;5.99;78.87
73748;BME280;62056;52.130;5.428;2023-02-11T01:51:55;103604.75;;;5.96;79.00
73748;BME280;62056;52.130;5.428;2023-02-11T01:54:27;103597.44;;;5.98;79.36
73748;BME280;62056;52.130;5.428;2023-02-11T01:57:15;103600.09;;;5.98;78.64
73748;BME280;62056;52.130;5.428;2023-02-11T02:00:15;103614.28;;;5.97;78.88
73748;BME280;62056;52.130;5.428;2023-02-11T02:03:03;103610.81;;;5.97;79.42
73748;BME280;62056;52.130;5.428;2023-02-11T02:05:39;103614.47;;;5.96;79.30
73748;BME280;62056;52.130;5.428;2023-02-11T02:10:52;103622.56;;;5.94;79.91
73748;BME280;62056;52.130;5.428;2023-02-11T02:13:22;103608.72;;;5.92;78.70
73748;BME280;62056;52.130;5.428;2023-02-11T02:15:51;103606.09;;;5.92;78.81
73748;BME280;62056;52.130;5.428;2023-02-11T02:24:09;103602.00;;;5.90;80.10
73748;BME280;62056;52.130;5.428;2023-02-11T02:32:30;103589.97;;;5.87;80.61
73748;BME280;62056;52.130;5.428;2023-02-11T02:35:37;103604.38;;;5.84;80.21
73748;BME280;62056;52.130;5.428;2023-02-11T02:41:10;103576.88;;;5.79;79.56
73748;BME280;62056;52.130;5.428;2023-02-11T02:43:45;103570.16;;;5.76;78.94
73748;BME280;62056;52.130;5.428;2023-02-11T02:46:23;103569.69;;;5.73;79.23
73748;BME280;62056;52.130;5.428;2023-02-11T02:48:51;103572.34;;;5.73;79.88
73748;BME280;62056;52.130;5.428;2023-02-11T02:57:31;103592.00;;;5.70;79.62
73748;BME280;62056;52.130;5.428;2023-02-11T03:00:11;103591.19;;;5.70;79.60
73748;BME280;62056;52.130;5.428;2023-02-11T03:02:58;103582.47;;;5.69;80.19
73748;BME280;62056;52.130;5.428;2023-02-11T03:05:41;103585.13;;;5.69;80.20
73748;BME280;62056;52.130;5.428;2023-02-11T03:08:23;103578.00;;;5.70;80.18
73748;BME280;62056;52.130;5.428;2023-02-11T03:10:51;103579.63;;;5.71;80.06
73748;BME280;62056;52.130;5.428;2023-02-11T03:13:21;103575.19;;;5.71;80.88
73748;BME280;62056;52.130;5.428;2023-02-11T03:15:51;103571.69;;;5.71;80.03
73748;BME280;62056;52.130;5.428;2023-02-11T03:18:23;103567.44;;;5.70;79.84
73748;BME280;62056;52.130;5.428;2023-02-11T03:20:52;103556.88;;;5.70;80.31
73748;BME280;62056;52.130;5.428;2023-02-11T03:23:26;103555.22;;;5.68;80.71
73748;BME280;62056;52.130;5.428;2023-02-11T03:26:01;103553.59;;;5.67;80.32
73748;BME280;62056;52.130;5.428;2023-02-11T03:28:38;103546.50;;;5.68;82.61
73748;BME280;62056;52.130;5.428;2023-02-11T03:31:20;103545.88;;;5.66;80.64
73748;BME280;62056;52.130;5.428;2023-02-11T03:33:59;103545.06;;;5.65;81.32
73748;BME280;62056;52.130;5.428;2023-02-11T03:36:36;103551.31;;;5.64;81.15
73748;BME280;62056;52.130;5.428;2023-02-11T03:39:04;103548.69;;;5.64;80.67
73748;BME280;62056;52.130;5.428;2023-02-11T03:41:33;103555.63;;;5.65;83.03
73748;BME280;62056;52.130;5.428;2023-02-11T03:44:01;103541.78;;;5.63;81.75
73748;BME280;62056;52.130;5.428;2023-02-11T03:46:35;103539.13;;;5.63;81.54
73748;BME280;62056;52.130;5.428;2023-02-11T03:49:08;103532.22;;;5.62;81.47
73748;BME280;62056;52.130;5.428;2023-02-11T03:51:38;103525.31;;;5.61;81.01
73748;BME280;62056;52.130;5.428;2023-02-11T03:54:10;103531.78;;;5.59;81.43
73748;BME280;62056;52.130;5.428;2023-02-11T03:56:50;103542.53;;;5.57;81.55
73748;BME280;62056;52.130;5.428;2023-02-11T03:59:17;103543.72;;;5.55;81.61
73748;BME280;62056;52.130;5.428;2023-02-11T04:01:44;103549.00;;;5.55;82.46
73748;BME280;62056;52.130;5.428;2023-02-11T04:04:11;103549.19;;;5.53;81.42
73748;BME280;62056;52.130;5.428;2023-02-11T04:06:38;103554.47;;;5.53;82.20
73748;BME280;62056;52.130;5.428;2023-02-11T04:09:04;103556.28;;;5.53;81.68
73748;BME280;62056;52.130;5.428;2023-02-11T04:11:31;103555.47;;;5.52;80.78
73748;BME280;62056;52.130;5.428;2023-02-11T04:13:58;103559.91;;;5.52;81.54
73748;BME280;62056;52.130;5.428;2023-02-11T04:16:25;103552.84;;;5.52;81.97
73748;BME280;62056;52.130;5.428;2023-02-11T04:18:52;103557.28;;;5.52;81.59
73748;BME280;62056;52.130;5.428;2023-02-11T04:21:19;103554.47;;;5.53;82.00
73748;BME280;62056;52.130;5.428;2023-02-11T04:23:45;103556.09;;;5.54;81.71
73748;BME280;62056;52.130;5.428;2023-02-11T04:26:12;103557.56;;;5.57;82.79
73748;BME280;62056;52.130;5.428;2023-02-11T04:28:39;103560.00;;;5.58;82.26
73748;BME280;62056;52.130;5.428;2023-02-11T04:31:06;103565.25;;;5.58;82.14
73748;BME280;62056;52.130;5.428;2023-02-11T04:33:33;103571.19;;;5.60;81.80
73748;BME280;62056;52.130;5.428;2023-02-11T04:35:59;103567.72;;;5.60;81.93
73748;BME280;62056;52.130;5.428;2023-02-11T04:38:26;103566.75;;;5.61;81.62
73748;BME280;62056;52.130;5.428;2023-02-11T04:40:52;103570.00;;;5.63;82.99
73748;BME280;62056;52.130;5.428;2023-02-11T04:43:19;103570.00;;;5.63;82.00
73748;BME280;62056;52.130;5.428;2023-02-11T04:45:46;103567.38;;;5.63;82.12
73748;BME280;62056;52.130;5.428;2023-02-11T04:48:12;103570.66;;;5.65;82.92
73748;BME280;62056;52.130;5.428;2023-02-11T04:50:40;103566.19;;;5.65;82.35
73748;BME280;62056;52.130;5.428;2023-02-11T04:53:07;103574.91;;;5.66;82.39
73748;BME280;62056;52.130;5.428;2023-02-11T04:55:33;103572.91;;;5.68;82.85
73748;BME280;62056;52.130;5.428;2023-02-11T04:58:00;103569.44;;;5.67;82.88
73748;BME280;62056;52.130;5.428;2023-02-11T05:00:27;103560.50;;;5.68;83.20
73748;BME280;62056;52.130;5.428;2023-02-11T05:02:53;103565.63;;;5.70;82.87
73748;BME280;62056;52.130;5.428;2023-02-11T05:05:20;103558.72;;;5.69;83.03
73748;BME280;62056;52.130;5.428;2023-02-11T05:07:47;103569.91;;;5.71;82.96
73748;BME280;62056;52.130;5.428;2023-02-11T05:10:13;103566.25;;;5.72;82.84
73748;BME280;62056;52.130;5.428;2023-02-11T05:12:40;103576.00;;;5.72;83.20
73748;BME280;62056;52.130;5.428;2023-02-11T05:15:07;103569.69;;;5.73;83.62
73748;BME280;62056;52.130;5.428;2023-02-11T05:17:34;103567.69;;;5.75;83.35
73748;BME280;62056;52.130;5.428;2023-02-11T05:20:00;103566.69;;;5.76;83.08
73748;BME280;62056;52.130;5.428;2023-02-11T05:22:27;103569.34;;;5.76;83.07
73748;BME280;62056;52.130;5.428;2023-02-11T05:24:54;103571.81;;;5.77;83.07
73748;BME280;62056;52.130;5.428;2023-02-11T05:27:20;103575.44;;;5.76;83.44
73748;BME280;62056;52.130;5.428;2023-02-11T05:29:47;103579.72;;;5.77;83.39
73748;BME280;62056;52.130;5.428;2023-02-11T05:32:14;103574.44;;;5.77;83.53
73748;BME280;62056;52.130;5.428;2023-02-11T05:34:40;103572.59;;;5.78;83.92
73748;BME280;62056;52.130;5.428;2023-02-11T05:37:07;103566.31;;;5.79;83.59
73748;BME280;62056;52.130;5.428;2023-02-11T05:39:34;103562.69;;;5.80;84.03
73748;BME280;62056;52.130;5.428;2023-02-11T05:42:00;103561.03;;;5.79;83.88
73748;BME280;62056;52.130;5.428;2023-02-11T05:44:27;103562.69;;;5.80;84.18
73748;BME280;62056;52.130;5.428;2023-02-11T05:46:53;103560.66;;;5.82;84.30
73748;BME280;62056;52.130;5.428;2023-02-11T05:49:20;103560.50;;;5.83;84.45
73748;BME280;62056;52.130;5.428;2023-02-11T05:51:47;103563.94;;;5.84;84.01
73748;BME280;62056;52.130;5.428;2023-02-11T05:54:14;103562.09;;;5.84;84.06
73748;BME280;62056;52.130;5.428;2023-02-11T05:56:40;103568.19;;;5.85;84.16
73748;BME280;62056;52.130;5.428;2023-02-11T05:59:12;103575.13;;;5.86;84.00
73748;BME280;62056;52.130;5.428;2023-02-11T06:01:39;103567.22;;;5.86;84.22
73748;BME280;62056;52.130;5.428;2023-02-11T06:04:06;103567.84;;;5.88;84.26
73748;BME280;62056;52.130;5.428;2023-02-11T06:06:33;103569.69;;;5.87;84.63
73748;BME280;62056;52.130;5.428;2023-02-11T06:08:59;103568.66;;;5.88;84.65
73748;BME280;62056;52.130;5.428;2023-02-11T06:11:26;103579.22;;;5.88;84.13
73748;BME280;62056;52.130;5.428;2023-02-11T06:13:53;103577.38;;;5.89;84.36
73748;BME280;62056;52.130;5.428;2023-02-11T06:16:19;103584.31;;;5.90;84.39
73748;BME280;62056;52.130;5.428;2023-02-11T06:18:46;103585.13;;;5.91;84.92
73748;BME280;62056;52.130;5.428;2023-02-11T06:21:13;103573.53;;;5.92;84.93
73748;BME280;62056;52.130;5.428;2023-02-11T06:23:39;103581.47;;;5.92;84.60
73748;BME280;62056;52.130;5.428;2023-02-11T06:26:07;103583.94;;;5.93;84.54
73748;BME280;62056;52.130;5.428;2023-02-11T06:28:34;103581.13;;;5.95;84.74
73748;BME280;62056;52.130;5.428;2023-02-11T06:31:06;103579.31;;;5.95;84.92
73748;BME280;62056;52.130;5.428;2023-02-11T06:33:33;103577.47;;;5.96;84.78
73748;BME280;62056;52.130;5.428;2023-02-11T06:36:01;103574.84;;;5.96;85.11
73748;BME280;62056;52.130;5.428;2023-02-11T06:38:28;103570.41;;;5.96;84.59
73748;BME280;62056;52.130;5.428;2023-02-11T06:40:54;103577.31;;;5.97;84.62
73748;BME280;62056;52.130;5.428;2023-02-11T06:43:21;103568.38;;;5.98;85.32
73748;BME280;62056;52.130;5.428;2023-02-11T06:45:52;103575.47;;;5.98;85.02
73748;BME280;62056;52.130;5.428;2023-02-11T06:48:20;103568.16;;;6.00;84.91
73748;BME280;62056;52.130;5.428;2023-02-11T06:50:46;103566.38;;;6.00;85.30
73748;BME280;62056;52.130;5.428;2023-02-11T06:53:13;103563.53;;;6.02;85.33
73748;BME280;62056;52.130;5.428;2023-02-11T06:55:40;103569.00;;;6.00;84.91
73748;BME280;62056;52.130;5.428;2023-02-11T06:58:07;103571.25;;;6.03;85.51
73748;BME280;62056;52.130;5.428;2023-02-11T07:00:33;103570.28;;;6.04;85.30
73748;BME280;62056;52.130;5.428;2023-02-11T07:03:00;103571.91;;;6.05;84.93
73748;BME280;62056;52.130;5.428;2023-02-11T07:05:26;103575.34;;;6.06;85.49
73748;BME280;62056;52.130;5.428;2023-02-11T07:07:53;103583.28;;;6.06;85.17
73748;BME280;62056;52.130;5.428;2023-02-11T07:10:20;103591.03;;;6.07;85.15
73748;BME280;62056;52.130;5.428;2023-02-11T07:12:47;103588.19;;;6.09;85.43
73748;BME280;62056;52.130;5.428;2023-02-11T07:15:13;103582.91;;;6.09;85.30
73748;BME280;62056;52.130;5.428;2023-02-11T07:17:40;103599.41;;;6.11;85.53
73748;BME280;62056;52.130;5.428;2023-02-11T07:20:07;103588.66;;;6.13;85.93
73748;BME280;62056;52.130;5.428;2023-02-11T07:22:35;103592.28;;;6.12;85.37
73748;BME280;62056;52.130;5.428;2023-02-11T07:25:02;103606.94;;;6.14;85.56
73748;BME280;62056;52.130;5.428;2023-02-11T07:27:30;103601.28;;;6.17;86.09
73748;BME280;62056;52.130;5.428;2023-02-11T07:29:56;103610.03;;;6.18;85.94
73748;BME280;62056;52.130;5.428;2023-02-11T07:32:23;103614.31;;;6.19;85.66
73748;BME280;62056;52.130;5.428;2023-02-11T07:34:50;103607.66;;;6.23;86.11
73748;BME280;62056;52.130;5.428;2023-02-11T07:37:17;103613.97;;;6.28;86.54
73748;BME280;62056;52.130;5.428;2023-02-11T07:39:44;103609.78;;;6.34;86.59
73748;BME280;62056;52.130;5.428;2023-02-11T07:42:10;103621.66;;;6.45;87.17
73748;BME280;62056;52.130;5.428;2023-02-11T07:44:37;103628.66;;;6.53;87.40
73748;BME280;62056;52.130;5.428;2023-02-11T07:47:04;103624.22;;;6.60;87.79
73748;BME280;62056;52.130;5.428;2023-02-11T07:49:30;103630.00;;;6.70;88.09
73748;BME280;62056;52.130;5.428;2023-02-11T07:51:57;103628.03;;;6.79;88.43
73748;BME280;62056;52.130;5.428;2023-02-11T07:54:24;103615.50;;;6.87;88.89
73748;BME280;62056;52.130;5.428;2023-02-11T07:56:50;103613.69;;;6.95;89.49
73748;BME280;62056;52.130;5.428;2023-02-11T07:59:17;103620.66;;;7.02;89.92
73748;BME280;62056;52.130;5.428;2023-02-11T08:01:44;103618.88;;;7.09;89.96
73748;BME280;62056;52.130;5.428;2023-02-11T08:04:11;103617.28;;;7.15;90.05
73748;BME280;62056;52.130;5.428;2023-02-11T08:06:40;103625.06;;;7.23;90.17
73748;BME280;62056;52.130;5.428;2023-02-11T08:09:12;103620.00;;;7.28;90.16
73748;BME280;62056;52.130;5.428;2023-02-11T08:11:40;103623.28;;;7.37;90.37
73748;BME280;62056;52.130;5.428;2023-02-11T08:14:07;103623.34;;;7.44;90.73
73748;BME280;62056;52.130;5.428;2023-02-11T08:16:35;103619.47;;;7.46;90.28
73748;BME280;62056;52.130;5.428;2023-02-11T08:19:05;103630.91;;;7.54;90.29
73748;BME280;62056;52.130;5.428;2023-02-11T08:21:32;103624.81;;;7.60;90.34
73748;BME280;62056;52.130;5.428;2023-02-11T08:24:00;103624.44;;;7.63;90.03
73748;BME280;62056;52.130;5.428;2023-02-11T08:26:29;103624.63;;;7.68;90.41
73748;BME280;62056;52.130;5.428;2023-02-11T08:28:57;103623.84;;;7.74;90.40
73748;BME280;62056;52.130;5.428;2023-02-11T08:31:26;103621.63;;;7.78;90.12
73748;BME280;62056;52.130;5.428;2023-02-11T08:33:54;103621.84;;;7.83;89.84
73748;BME280;62056;52.130;5.428;2023-02-11T08:36:30;103623.69;;;7.89;90.74
73748;BME280;62056;52.130;5.428;2023-02-11T08:38:58;103632.84;;;7.86;90.32
73748;BME280;62056;52.130;5.428;2023-02-11T08:41:43;103633.47;;;7.88;89.32
73748;BME280;62056;52.130;5.428;2023-02-11T08:44:10;103638.78;;;7.95;90.29
73748;BME280;62056;52.130;5.428;2023-02-11T08:46:37;103642.88;;;7.98;89.84
73748;BME280;62056;52.130;5.428;2023-02-11T08:49:03;103639.84;;;8.01;90.01
73748;BME280;62056;52.130;5.428;2023-02-11T08:51:30;103638.22;;;8.06;90.32
73748;BME280;62056;52.130;5.428;2023-02-11T08:53:57;103640.44;;;8.03;89.95
73748;BME280;62056;52.130;5.428;2023-02-11T08:56:25;103644.13;;;8.08;90.18
73748;BME280;62056;52.130;5.428;2023-02-11T08:58:52;103642.09;;;8.10;90.10
73748;BME280;62056;52.130;5.428;2023-02-11T09:01:22;103646.38;;;8.11;90.25
73748;BME280;62056;52.130;5.428;2023-02-11T09:03:50;103654.13;;;8.13;89.99
73748;BME280;62056;52.130;5.428;2023-02-11T09:06:18;103655.97;;;8.19;89.79
73748;BME280;62056;52.130;5.428;2023-02-11T09:08:47;103654.13;;;8.20;89.59
73748;BME280;62056;52.130;5.428;2023-02-11T09:11:16;103664.13;;;8.24;90.00
73748;BME280;62056;52.130;5.428;2023-02-11T09:13:44;103667.81;;;8.30;89.42
73748;BME280;62056;52.130;5.428;2023-02-11T09:16:16;103671.28;;;8.30;88.81
73748;BME280;62056;52.130;5.428;2023-02-11T09:18:44;103669.66;;;8.36;89.40
73748;BME280;62056;52.130;5.428;2023-02-11T09:21:11;103668.09;;;8.42;89.52
73748;BME280;62056;52.130;5.428;2023-02-11T09:23:38;103664.00;;;8.46;88.95
73748;BME280;62056;52.130;5.428;2023-02-11T09:26:17;103667.06;;;8.49;89.15
73748;BME280;62056;52.130;5.428;2023-02-11T09:28:44;103664.81;;;8.53;88.88
73748;BME280;62056;52.130;5.428;2023-02-11T09:31:14;103669.69;;;8.56;88.56
73748;BME280;62056;52.130;5.428;2023-02-11T09:33:43;103684.19;;;8.60;88.56
73748;BME280;62056;52.130;5.428;2023-02-11T09:36:15;103676.66;;;8.64;88.09
73748;BME280;62056;52.130;5.428;2023-02-11T09:38:42;103667.88;;;8.70;88.22
73748;BME280;62056;52.130;5.428;2023-02-11T09:43:52;103685.84;;;8.81;88.06
73748;BME280;62056;52.130;5.428;2023-02-11T09:46:20;103688.91;;;8.78;88.09
73748;BME280;62056;52.130;5.428;2023-02-11T09:48:51;103691.16;;;8.81;87.19
73748;BME280;62056;52.130;5.428;2023-02-11T09:53:55;103688.50;;;8.88;87.61
73748;BME280;62056;52.130;5.428;2023-02-11T09:56:27;103688.06;;;8.91;87.52
73748;BME280;62056;52.130;5.428;2023-02-11T09:58:53;103688.69;;;8.93;86.79
73748;BME280;62056;52.130;5.428;2023-02-11T10:06:40;103701.97;;;9.06;87.21
73748;BME280;62056;52.130;5.428;2023-02-11T10:09:14;103711.13;;;9.04;86.45
73748;BME280;62056;52.130;5.428;2023-02-11T10:20:22;103727.06;;;9.17;85.22
73748;BME280;62056;52.130;5.428;2023-02-11T10:22:56;103732.16;;;9.25;85.79
73748;BME280;62056;52.130;5.428;2023-02-11T10:25:32;103726.44;;;9.28;85.48
73748;BME280;62056;52.130;5.428;2023-02-11T10:28:09;103725.81;;;9.40;86.19
73748;BME280;62056;52.130;5.428;2023-02-11T10:30:41;103731.50;;;9.43;85.24
73748;BME280;62056;52.130;5.428;2023-02-11T10:33:23;103739.69;;;9.48;84.60
73748;BME280;62056;52.130;5.428;2023-02-11T10:35:51;103736.81;;;9.57;85.31
73748;BME280;62056;52.130;5.428;2023-02-11T10:38:18;103737.38;;;9.65;84.89
73748;BME280;62056;52.130;5.428;2023-02-11T10:40:45;103741.47;;;9.68;84.45
73748;BME280;62056;52.130;5.428;2023-02-11T10:43:16;103747.78;;;9.73;84.60
73748;BME280;62056;52.130;5.428;2023-02-11T10:45:52;103751.66;;;9.78;83.36
73748;BME280;62056;52.130;5.428;2023-02-11T10:53:49;103744.31;;;9.80;82.71
73748;BME280;62056;52.130;5.428;2023-02-11T10:56:25;103743.09;;;9.76;81.57
73748;BME280;62056;52.130;5.428;2023-02-11T10:59:06;103743.69;;;9.78;82.22
73748;BME280;62056;52.130;5.428;2023-02-11T11:01:44;103738.56;;;9.83;81.97
73748;BME280;62056;52.130;5.428;2023-02-11T11:07:24;103745.28;;;9.85;81.95
73748;BME280;62056;52.130;5.428;2023-02-11T11:10:07;103752.03;;;9.88;82.32
73748;BME280;62056;52.130;5.428;2023-02-11T11:12:50;103753.03;;;9.93;82.44
73748;BME280;62056;52.130;5.428;2023-02-11T11:15:31;103766.91;;;10.02;81.99
73748;BME280;62056;52.130;5.428;2023-02-11T11:21:01;103762.38;;;10.09;81.51
73748;BME280;62056;52.130;5.428;2023-02-11T11:23:29;103764.78;;;10.18;80.81
73748;BME280;62056;52.130;5.428;2023-02-11T11:28:28;103778.66;;;10.26;81.03
73748;BME280;62056;52.130;5.428;2023-02-11T11:30:58;103773.97;;;10.22;80.10
73748;BME280;62056;52.130;5.428;2023-02-11T11:33:28;103773.34;;;10.26;80.89
73748;BME280;62056;52.130;5.428;2023-02-11T11:36:10;103778.28;;;10.29;79.92
73748;BME280;62056;52.130;5.428;2023-02-11T11:38:57;103778.84;;;10.38;78.34
73748;BME280;62056;52.130;5.428;2023-02-11T11:41:32;103783.91;;;10.46;80.16
73748;BME280;62056;52.130;5.428;2023-02-11T11:44:23;103786.94;;;10.57;79.61
73748;BME280;62056;52.130;5.428;2023-02-11T11:47:11;103777.25;;;10.62;77.85
73748;BME280;62056;52.130;5.428;2023-02-11T11:49:52;103776.84;;;10.65;77.94
73748;BME280;62056;52.130;5.428;2023-02-11T11:52:45;103772.50;;;10.71;78.54
73748;BME280;62056;52.130;5.428;2023-02-11T11:55:19;103752.69;;;10.67;77.74
73748;BME280;62056;52.130;5.428;2023-02-11T11:57:47;103757.56;;;10.70;77.21
73748;BME280;62056;52.130;5.428;2023-02-11T12:00:29;103763.75;;;10.64;75.41
73748;BME280;62056;52.130;5.428;2023-02-11T12:05:58;103758.97;;;10.72;77.30
73748;BME280;62056;52.130;5.428;2023-02-11T12:08:52;103755.44;;;10.79;76.72
73748;BME280;62056;52.130;5.428;2023-02-11T12:11:30;103749.75;;;10.75;76.95
73748;BME280;62056;52.130;5.428;2023-02-11T12:17:06;103741.13;;;10.80;76.91
73748;BME280;62056;52.130;5.428;2023-02-11T12:25:26;103762.50;;;10.91;76.70
73748;BME280;62056;52.130;5.428;2023-02-11T12:49:49;103745.72;;;11.16;74.20
73748;BME280;62056;52.130;5.428;2023-02-11T12:52:35;103752.69;;;11.17;73.93
73748;BME280;62056;52.130;5.428;2023-02-11T12:55:22;103747.28;;;11.24;74.27
73748;BME280;62056;52.130;5.428;2023-02-11T12:57:51;103751.84;;;11.17;73.79
73748;BME280;62056;52.130;5.428;2023-02-11T13:00:22;103746.69;;;11.22;74.45
73748;BME280;62056;52.130;5.428;2023-02-11T13:03:11;103750.97;;;11.23;73.99
73748;BME280;62056;52.130;5.428;2023-02-11T13:05:46;103738.63;;;11.28;73.51
73748;BME280;62056;52.130;5.428;2023-02-11T13:08:34;103739.22;;;11.30;73.36
73748;BME280;62056;52.130;5.428;2023-02-11T13:11:06;103734.94;;;11.29;73.07
73748;BME280;62056;52.130;5.428;2023-02-11T13:13:47;103748.28;;;11.29;73.14
73748;BME280;62056;52.130;5.428;2023-02-11T13:16:35;103756.69;;;11.26;71.42
73748;BME280;62056;52.130;5.428;2023-02-11T13:21:45;103741.38;;;11.40;71.91
73748;BME280;62056;52.130;5.428;2023-02-11T13:30:02;103738.06;;;11.45;71.63
73748;BME280;62056;52.130;5.428;2023-02-11T13:37:55;103727.84;;;11.42;71.67
73748;BME280;62056;52.130;5.428;2023-02-11T13:40:26;103730.66;;;11.47;71.46
73748;BME280;62056;52.130;5.428;2023-02-11T13:43:01;103723.53;;;11.41;71.75
73748;BME280;62056;52.130;5.428;2023-02-11T13:45:40;103725.31;;;11.47;71.24
73748;BME280;62056;52.130;5.428;2023-02-11T13:50:54;103741.69;;;11.50;71.64
73748;BME280;62056;52.130;5.428;2023-02-11T13:53:22;103735.91;;;11.53;71.49
73748;BME280;62056;52.130;5.428;2023-02-11T13:55:51;103732.66;;;11.51;71.09
73748;BME280;62056;52.130;5.428;2023-02-11T14:00:54;103733.69;;;11.50;71.37
73748;BME280;62056;52.130;5.428;2023-02-11T14:03:28;103733.09;;;11.48;71.43
73748;BME280;62056;52.130;5.428;2023-02-11T14:14:25;103743.09;;;11.53;71.42
73748;BME280;62056;52.130;5.428;2023-02-11T14:22:05;103739.75;;;11.39;71.25
73748;BME280;62056;52.130;5.428;2023-02-11T14:24:45;103744.06;;;11.40;71.24
73748;BME280;62056;52.130;5.428;2023-02-11T14:27:30;103741.81;;;11.37;71.27
73748;BME280;62056;52.130;5.428;2023-02-11T14:30:19;103745.91;;;11.40;71.20
73748;BME280;62056;52.130;5.428;2023-02-11T14:36:07;103743.00;;;11.41;71.03
73748;BME280;62056;52.130;5.428;2023-02-11T14:43:50;103746.25;;;11.43;71.45
73748;BME280;62056;52.130;5.428;2023-02-11T14:46:19;103750.97;;;11.48;71.32
73748;BME280;62056;52.130;5.428;2023-02-11T14:48:48;103754.44;;;11.48;71.47
73748;BME280;62056;52.130;5.428;2023-02-11T14:51:23;103756.03;;;11.49;71.50
73748;BME280;62056;52.130;5.428;2023-02-11T14:53:54;103752.94;;;11.52;71.60
73748;BME280;62056;52.130;5.428;2023-02-11T14:56:27;103746.56;;;11.53;71.28
73748;BME280;62056;52.130;5.428;2023-02-11T14:58:57;103749.81;;;11.55;71.53
73748;BME280;62056;52.130;5.428;2023-02-11T15:01:34;103749.44;;;11.52;71.66
73748;BME280;62056;52.130;5.428;2023-02-11T15:04:04;103760.94;;;11.52;71.17
73748;BME280;62056;52.130;5.428;2023-02-11T15:06:37;103756.63;;;11.51;71.21
73748;BME280;62056;52.130;5.428;2023-02-11T15:09:25;103753.75;;;11.53;71.53
73748;BME280;62056;52.130;5.428;2023-02-11T15:11:55;103751.53;;;11.50;71.40
73748;BME280;62056;52.130;5.428;2023-02-11T15:14:26;103757.31;;;11.47;71.51
73748;BME280;62056;52.130;5.428;2023-02-11T15:16:56;103759.16;;;11.46;71.33
73748;BME280;62056;52.130;5.428;2023-02-11T15:19:28;103760.19;;;11.45;70.91
73748;BME280;62056;52.130;5.428;2023-02-11T15:22:00;103768.63;;;11.42;70.89
73748;BME280;62056;52.130;5.428;2023-02-11T15:24:28;103773.38;;;11.40;71.58
73748;BME280;62056;52.130;5.428;2023-02-11T15:29:38;103776.47;;;11.37;71.02
73748;BME280;62056;52.130;5.428;2023-02-11T15:34:35;103771.06;;;11.25;71.23